Hovedside
METAR-TAF:

METAR-TAF

Lufthavner :

Porto Alegre, Rio Grande do Sul, Brasil

breddegrad: 30-00S, lengdegrad: 051-11W, høyde over havet: 3 m

METAR: fraværende

Tid: 19:51 (22:51 UTC)

Varsel

Denne rapporten ble laget for 7 timer og 51 minutter siden, klokken 15:00 UTC
Varsel gyldig fra 25. klokken 18 UTC til 26. klokken 18 UTC
Vind 10 kt fra Sørøst
Sikt 10 km eller mer
Brutte skyer i en høyde av 1800 ft
Blir
fra 26. klokken 00 UTC til 26. klokken 02 UTC
Vind 5 kt fra Øst
Sikt: 7000 m
Brutte skyer i en høyde av 1000 ft
lett regn
Blir
fra 26. klokken 10 UTC til 26. klokken 12 UTC
Vind 5 kt fra Sør
Sikt 10 km eller mer
Brutte skyer i en høyde av 1500 ft

TAF: SBPA 251500Z 2518/2618 13010KT 9999 BKN018 TX16/2518Z TN11/2607Z BECMG 2600/2602 10005KT 7000 -RA BKN010 BECMG 2610/2612 19005KT 9999 BKN015 RMK PCO

Værobservasjoner og værvarsel for over 4000 flyplasser (METAR- og TAF-rapporter).

Tilgjengelige stasjoner er representert av de røde og gule prikkene på kartet.

Hold musepekeren over prikken for å se navnet på stasjonen.

Klikk så for å se værobservasjoner og -varsler.

For å forandre kartet kan du klikke på den grønne knappen med svart kryss for å zoome inn, på den grønne knappen med strek for å zoome ut, eller på de grønne pilene for å se tilstøtende kart.


METAR-TAF: